createdAt,value
2019-03-17T00:03:01.865Z,96806.07
2019-03-17T00:08:05.571Z,96799.63
2019-03-17T00:13:09.157Z,96800.05
2019-03-17T00:18:12.633Z,96787.33
2019-03-17T00:23:16.455Z,96778.13
2019-03-17T00:28:20.023Z,96774.16
2019-03-17T00:33:24.371Z,96774.56
2019-03-17T00:38:28.046Z,96770.55
2019-03-17T00:43:31.836Z,96763.28
2019-03-17T00:48:35.457Z,96749.23
2019-03-17T00:53:38.962Z,96747.53
2019-03-17T00:58:42.914Z,96737.47
2019-03-17T01:03:46.563Z,96730.20
2019-03-17T01:08:50.411Z,96723.87
2019-03-17T01:13:53.983Z,96726.38
2019-03-17T01:18:57.395Z,96714.91
2019-03-17T01:24:01.000Z,96711.91
2019-03-17T01:29:05.564Z,96708.32
2019-03-17T01:34:09.136Z,96694.95
2019-03-17T01:39:13.123Z,96691.25
2019-03-17T01:44:16.630Z,96689.16
2019-03-17T01:49:20.258Z,96690.88
2019-03-17T01:54:23.737Z,96679.51
2019-03-17T01:59:27.194Z,96678.80
2019-03-17T02:04:31.115Z,96673.90
2019-03-17T02:09:34.616Z,96674.62
2019-03-17T02:14:38.301Z,96672.85
2019-03-17T02:19:41.979Z,96680.06
2019-03-17T02:24:45.843Z,96671.89
2019-03-17T02:29:49.524Z,96671.71
2019-03-17T02:34:53.051Z,96669.25
2019-03-17T02:39:56.705Z,96671.85
2019-03-17T02:45:00.448Z,96669.73
2019-03-17T02:50:04.197Z,96671.02
2019-03-17T02:55:07.856Z,96660.16
2019-03-17T03:00:11.743Z,96653.17
2019-03-17T03:05:15.463Z,96648.14
2019-03-17T03:10:19.105Z,96649.95
2019-03-17T03:15:22.566Z,96637.80
2019-03-17T03:20:26.008Z,96633.22
2019-03-17T03:25:29.421Z,96627.42
2019-03-17T03:30:32.962Z,96625.50
2019-03-17T03:35:36.333Z,96622.80
2019-03-17T03:40:39.742Z,96618.98
2019-03-17T03:45:43.286Z,96611.31
2019-03-17T03:50:46.693Z,96610.86
2019-03-17T03:55:50.205Z,96614.92
2019-03-17T04:00:53.689Z,96612.11
2019-03-17T04:05:57.111Z,96605.45
2019-03-17T04:11:00.570Z,96600.55
2019-03-17T04:16:04.037Z,96598.18
2019-03-17T04:21:07.493Z,96588.98
2019-03-17T04:26:10.926Z,96589.96
2019-03-17T04:31:14.904Z,96597.42
2019-03-17T04:36:17.945Z,96580.84
2019-03-17T04:41:21.389Z,96578.37
2019-03-17T04:46:24.840Z,96578.61
2019-03-17T04:51:28.286Z,96574.27
2019-03-17T04:56:31.742Z,96571.59
2019-03-17T05:01:35.162Z,96575.51
2019-03-17T05:06:38.692Z,96576.36
2019-03-17T05:11:42.177Z,96581.92
2019-03-17T05:16:45.590Z,96583.17
2019-03-17T05:21:49.136Z,96583.26
2019-03-17T05:26:52.551Z,96565.42
2019-03-17T05:31:55.977Z,96566.52
2019-03-17T05:37:05.933Z,96547.20
2019-03-17T05:42:02.897Z,96537.94
2019-03-17T05:47:06.384Z,96539.50
2019-03-17T05:52:09.912Z,96549.95
2019-03-17T05:57:13.390Z,96544.85
2019-03-17T06:02:16.803Z,96540.55
2019-03-17T06:07:20.321Z,96530.97
2019-03-17T06:12:23.953Z,96530.75
2019-03-17T06:17:27.358Z,96532.12
2019-03-17T06:22:30.967Z,96537.86
2019-03-17T06:27:34.386Z,96538.72
2019-03-17T06:32:37.918Z,96545.21
2019-03-17T06:37:41.406Z,96541.61
2019-03-17T06:42:44.904Z,96545.53
2019-03-17T06:47:48.408Z,96533.46
2019-03-17T06:52:53.549Z,96538.06
2019-03-17T06:57:55.366Z,96533.47
2019-03-17T07:02:58.840Z,96527.42
2019-03-17T07:08:02.318Z,96518.67
2019-03-17T07:13:05.794Z,96516.16
2019-03-17T07:18:09.254Z,96514.97
2019-03-17T07:23:12.667Z,96514.85
2019-03-17T07:28:16.135Z,96511.20
2019-03-17T07:33:19.568Z,96505.92
2019-03-17T07:38:23.032Z,96496.16
2019-03-17T07:43:26.651Z,96485.31
2019-03-17T07:48:30.043Z,96481.98
2019-03-17T07:53:33.557Z,96488.04
2019-03-17T07:58:37.876Z,96488.03
2019-03-17T08:03:41.385Z,96484.61
2019-03-17T08:08:44.926Z,96479.59
2019-03-17T08:13:48.428Z,96473.05
2019-03-17T08:18:51.890Z,96471.70
2019-03-17T08:23:55.394Z,96467.34
2019-03-17T08:28:58.890Z,96469.22
2019-03-17T08:34:03.432Z,96476.03
2019-03-17T08:39:08.047Z,96477.36
2019-03-17T08:44:11.728Z,96466.03
2019-03-17T08:49:15.356Z,96460.84
2019-03-17T08:54:18.956Z,96461.83
2019-03-17T08:59:24.689Z,96474.27
2019-03-17T09:04:28.176Z,96476.91
2019-03-17T09:09:31.691Z,96464.83
2019-03-17T09:14:36.517Z,96469.23
2019-03-17T09:19:40.152Z,96458.17
2019-03-17T09:24:44.209Z,96449.78
2019-03-17T09:29:47.779Z,96448.05
2019-03-17T09:34:51.513Z,96443.80
2019-03-17T09:39:54.999Z,96442.46
2019-03-17T09:44:58.637Z,96430.73
2019-03-17T09:50:02.091Z,96428.95
2019-03-17T09:55:05.708Z,96428.17
2019-03-17T10:00:10.695Z,96407.09
2019-03-17T10:05:14.121Z,96404.64
2019-03-17T10:10:17.607Z,96393.32
2019-03-17T10:15:21.147Z,96389.38
2019-03-17T10:20:25.672Z,96392.57
2019-03-17T10:25:29.237Z,96391.55
2019-03-17T10:30:33.692Z,96378.08
2019-03-17T10:35:37.202Z,96383.31
2019-03-17T10:40:40.792Z,96376.87
2019-03-17T10:45:44.312Z,96372.62
2019-03-17T10:50:49.895Z,96362.36
2019-03-17T10:55:51.259Z,96364.42
2019-03-17T11:00:54.938Z,96361.53
2019-03-17T11:05:58.409Z,96355.52
2019-03-17T11:11:01.885Z,96335.44
2019-03-17T11:16:05.383Z,96348.00
2019-03-17T11:21:08.968Z,96329.07
2019-03-17T11:26:12.555Z,96329.10
2019-03-17T11:31:16.096Z,96329.28
2019-03-17T11:36:19.832Z,96342.94
2019-03-17T11:41:23.357Z,96346.67
2019-03-17T11:46:27.022Z,96338.81
2019-03-17T11:51:31.579Z,96319.39
2019-03-17T11:56:35.120Z,96300.52
2019-03-17T12:01:38.738Z,96302.50
2019-03-17T12:06:42.462Z,96299.56
2019-03-17T12:11:46.146Z,96297.07
2019-03-17T12:16:49.672Z,96267.00
2019-03-17T12:21:53.344Z,96281.03
2019-03-17T12:26:56.872Z,96252.23
2019-03-17T12:32:01.470Z,96232.84
2019-03-17T12:37:05.051Z,96260.11
2019-03-17T12:42:08.658Z,96232.55
2019-03-17T12:47:12.274Z,96229.06
2019-03-17T12:52:15.806Z,96235.91
2019-03-17T12:57:19.343Z,96223.81
2019-03-17T13:02:22.977Z,96215.22
2019-03-17T13:07:26.539Z,96209.71
2019-03-17T13:12:30.168Z,96216.29
2019-03-17T13:17:33.738Z,96208.95
2019-03-17T13:22:40.048Z,96198.27
2019-03-17T13:27:43.659Z,96190.91
2019-03-17T13:32:47.219Z,96190.44
2019-03-17T13:37:50.739Z,96187.24
2019-03-17T13:42:55.409Z,96200.59
2019-03-17T13:47:58.969Z,96197.00
2019-03-17T13:53:02.473Z,96191.47
2019-03-17T13:58:06.249Z,96214.57
2019-03-17T14:03:09.857Z,96201.91
2019-03-17T14:08:13.432Z,96194.53
2019-03-17T14:13:16.995Z,96194.92
2019-03-17T14:18:20.585Z,96191.61
2019-03-17T14:23:24.104Z,96195.93
2019-03-17T14:28:27.634Z,96192.90
2019-03-17T14:33:31.314Z,96198.97
2019-03-17T14:38:34.945Z,96197.08
2019-03-17T14:43:38.501Z,96217.15
2019-03-17T14:48:42.198Z,96228.87
2019-03-17T14:53:45.959Z,96251.47
2019-03-17T14:58:49.605Z,96245.23
2019-03-17T15:03:53.229Z,96249.68
2019-03-17T15:08:56.865Z,96277.38
2019-03-17T15:14:00.399Z,96268.25
2019-03-17T15:19:03.920Z,96258.61
2019-03-17T15:24:07.532Z,96285.36
2019-03-17T15:29:11.269Z,96287.16
2019-03-17T15:34:14.824Z,96297.89
2019-03-17T15:39:18.370Z,96304.48
2019-03-17T15:44:22.002Z,96335.72
2019-03-17T15:49:25.676Z,96334.05
2019-03-17T15:54:31.247Z,96372.49
2019-03-17T15:59:34.982Z,96357.89
2019-03-17T16:04:38.644Z,96374.39
2019-03-17T16:09:42.161Z,96409.66
2019-03-17T16:14:45.889Z,96454.12
2019-03-17T16:19:49.486Z,96541.52
2019-03-17T16:24:53.137Z,96601.30
2019-03-17T16:29:56.844Z,96630.42
2019-03-17T16:35:00.478Z,96633.73
2019-03-17T16:40:04.196Z,96678.80
2019-03-17T16:45:08.023Z,96687.23
2019-03-17T16:50:12.891Z,96703.94
2019-03-17T16:55:16.494Z,96704.44
2019-03-17T17:00:20.202Z,96701.95
2019-03-17T17:05:23.845Z,96713.91
2019-03-17T17:10:27.443Z,96738.74
2019-03-17T17:15:31.078Z,96748.38
2019-03-17T17:20:34.738Z,96751.30
2019-03-17T17:25:38.289Z,96738.86
2019-03-17T17:30:42.007Z,96756.03
2019-03-17T17:35:45.514Z,96761.15
2019-03-17T17:40:49.194Z,96777.14
2019-03-17T17:45:52.817Z,96747.41
2019-03-17T17:50:56.565Z,96760.16
2019-03-17T17:56:00.097Z,96757.69
2019-03-17T18:01:03.704Z,96735.02
2019-03-17T18:06:07.413Z,96729.16
2019-03-17T18:11:11.027Z,96717.65
2019-03-17T18:16:14.676Z,96715.09
2019-03-17T18:21:18.201Z,96733.19
2019-03-17T18:26:21.743Z,96767.22
2019-03-17T18:31:25.444Z,96772.05
2019-03-17T18:36:29.004Z,96769.59
2019-03-17T18:41:32.624Z,96796.47
2019-03-17T18:46:36.160Z,96793.47
2019-03-17T18:51:40.789Z,96795.30
2019-03-17T18:56:44.370Z,96821.19
2019-03-17T19:01:48.053Z,96843.47
2019-03-17T19:06:51.598Z,96849.95
2019-03-17T19:11:55.122Z,96842.10
2019-03-17T19:16:58.716Z,96852.25
2019-03-17T19:22:02.222Z,96887.05
2019-03-17T19:27:07.702Z,96898.20
2019-03-17T19:32:11.339Z,96911.39
2019-03-17T19:37:15.317Z,96906.98
2019-03-17T19:42:19.072Z,96918.64
2019-03-17T19:47:23.868Z,96937.70
2019-03-17T19:52:27.972Z,96949.55
2019-03-17T19:57:31.885Z,96982.22
2019-03-17T20:02:36.741Z,96985.18
2019-03-17T20:07:40.339Z,96988.79
2019-03-17T20:12:44.212Z,97003.91
2019-03-17T20:17:47.771Z,96995.06
2019-03-17T20:22:51.600Z,97007.14
2019-03-17T20:27:55.355Z,97010.39
2019-03-17T20:32:58.996Z,97013.35
2019-03-17T20:38:02.957Z,97017.46
2019-03-17T20:43:18.554Z,97037.81
2019-03-17T20:48:10.333Z,97041.59
2019-03-17T20:53:14.212Z,97052.34
2019-03-17T20:58:17.726Z,97056.70
2019-03-17T21:03:21.283Z,97067.79
2019-03-17T21:08:24.994Z,97059.30
2019-03-17T21:13:28.633Z,97067.27
2019-03-17T21:18:32.891Z,97056.38
2019-03-17T21:23:36.853Z,97070.44
2019-03-17T21:28:40.744Z,97082.99
2019-03-17T21:33:45.340Z,97076.41
2019-03-17T21:38:48.846Z,97088.86
2019-03-17T21:43:59.307Z,97110.94
2019-03-17T21:48:56.207Z,97108.92
2019-03-17T21:54:00.342Z,97103.48
2019-03-17T21:59:04.275Z,97133.53
2019-03-17T22:04:08.103Z,97122.78
2019-03-17T22:09:11.719Z,97123.97
2019-03-17T22:14:15.999Z,97127.25
2019-03-17T22:19:19.692Z,97138.27
2019-03-17T22:24:23.615Z,97127.83
2019-03-17T22:29:27.074Z,97147.62
2019-03-17T22:34:31.354Z,97151.73
2019-03-17T22:39:35.184Z,97168.52
2019-03-17T22:44:39.647Z,97175.31
2019-03-17T22:49:43.303Z,97168.44
2019-03-17T22:54:46.761Z,97173.78
2019-03-17T22:59:50.503Z,97179.80
2019-03-17T23:04:53.955Z,97203.63
2019-03-17T23:09:57.416Z,97212.19
2019-03-17T23:15:01.137Z,97214.78
2019-03-17T23:20:05.088Z,97221.20
2019-03-17T23:25:08.745Z,97229.81
2019-03-17T23:30:12.325Z,97229.81
2019-03-17T23:35:15.794Z,97242.53
2019-03-17T23:40:19.227Z,97245.22
2019-03-17T23:45:22.719Z,97257.67
2019-03-17T23:50:26.160Z,97257.48
2019-03-17T23:55:29.640Z,97252.67
